createdAt,value
2023-04-28T00:00:59.044Z,1.00
2023-04-28T00:02:00.889Z,1.00
2023-04-28T00:03:02.861Z,1.00
2023-04-28T00:04:05.249Z,1.00
2023-04-28T00:05:07.582Z,1.00
2023-04-28T00:06:09.860Z,1.00
2023-04-28T00:07:11.522Z,1.00
2023-04-28T00:08:13.161Z,1.00
2023-04-28T00:09:14.838Z,1.00
2023-04-28T00:10:16.789Z,1.00
2023-04-28T00:11:18.844Z,1.00
2023-04-28T00:12:20.691Z,1.00
2023-04-28T00:13:24.779Z,1.00
2023-04-28T00:14:26.817Z,1.00
2023-04-28T00:15:28.631Z,1.00
2023-04-28T00:16:30.579Z,1.00
2023-04-28T00:17:34.435Z,1.00
2023-04-28T00:18:38.320Z,1.00
2023-04-28T00:19:40.424Z,1.00
2023-04-28T00:20:42.088Z,1.00
2023-04-28T00:21:43.727Z,1.00
2023-04-28T00:22:46.828Z,1.00
2023-04-28T00:23:48.467Z,1.00
2023-04-28T00:24:50.440Z,1.00
2023-04-28T00:25:52.790Z,1.00
2023-04-28T00:26:54.438Z,1.00
2023-04-28T00:27:56.101Z,1.00
2023-04-28T00:28:57.742Z,1.00
2023-04-28T00:29:59.797Z,1.00
2023-04-28T00:31:02.055Z,1.00
2023-04-28T00:32:13.229Z,1.00
2023-04-28T00:33:15.063Z,1.00
2023-04-28T00:34:17.034Z,1.00
2023-04-28T00:35:19.573Z,1.00
2023-04-28T00:36:21.568Z,1.00
2023-04-28T00:37:23.340Z,1.00
2023-04-28T00:38:25.900Z,1.00
2023-04-28T00:39:27.860Z,1.00
2023-04-28T00:40:37.155Z,1.00
2023-04-28T00:41:39.917Z,1.00
2023-04-28T00:42:42.446Z,1.00
2023-04-28T00:43:45.877Z,1.00
2023-04-28T00:44:47.902Z,1.00
2023-04-28T00:45:50.567Z,1.00
2023-04-28T00:46:52.299Z,1.00
2023-04-28T00:47:55.650Z,1.00
2023-04-28T00:49:00.716Z,1.00
2023-04-28T00:50:04.349Z,1.00
2023-04-28T00:51:07.492Z,1.00
2023-04-28T00:52:10.444Z,1.00
2023-04-28T00:53:13.208Z,1.00
2023-04-28T00:54:15.429Z,1.00
2023-04-28T00:55:18.310Z,1.00
2023-04-28T00:56:21.005Z,1.00
2023-04-28T00:57:23.172Z,1.00
2023-04-28T00:58:25.370Z,1.00
2023-04-28T00:59:27.082Z,1.00
2023-04-28T01:00:29.192Z,1.00
2023-04-28T01:01:36.497Z,1.00
2023-04-28T01:02:39.436Z,1.00
2023-04-28T01:03:41.861Z,1.00
2023-04-28T01:04:47.917Z,1.00
2023-04-28T01:05:50.057Z,1.00
2023-04-28T01:06:53.697Z,1.00
2023-04-28T01:07:56.169Z,1.00
2023-04-28T01:08:58.192Z,1.00
2023-04-28T01:10:00.245Z,1.00
2023-04-28T01:11:02.253Z,1.00
2023-04-28T01:12:04.456Z,1.00
2023-04-28T01:13:06.202Z,1.00
2023-04-28T01:14:07.937Z,1.00
2023-04-28T01:15:20.270Z,1.00
2023-04-28T01:16:22.172Z,1.00
2023-04-28T01:17:24.340Z,1.00
2023-04-28T01:18:26.299Z,1.00
2023-04-28T01:19:29.688Z,1.00
2023-04-28T01:20:31.393Z,1.00
2023-04-28T01:21:33.900Z,1.00
2023-04-28T01:22:35.719Z,1.00
2023-04-28T01:23:38.389Z,1.00
2023-04-28T01:24:40.135Z,1.00
2023-04-28T01:25:42.713Z,1.00
2023-04-28T01:26:45.237Z,1.00
2023-04-28T01:27:46.879Z,1.00
2023-04-28T01:28:48.561Z,1.00
2023-04-28T01:29:50.215Z,1.00
2023-04-28T01:30:51.878Z,1.00
2023-04-28T01:31:53.599Z,1.00
2023-04-28T01:32:55.328Z,1.00
2023-04-28T01:33:57.451Z,1.00
2023-04-28T01:34:59.107Z,1.00
2023-04-28T01:36:00.756Z,1.00
2023-04-28T01:37:02.431Z,1.00
2023-04-28T01:38:04.254Z,1.00
2023-04-28T01:39:06.173Z,1.00
2023-04-28T01:40:08.382Z,1.00
2023-04-28T01:41:10.056Z,1.00
2023-04-28T01:42:11.888Z,1.00
2023-04-28T01:43:13.563Z,1.00
2023-04-28T01:44:15.356Z,1.00
2023-04-28T01:45:17.194Z,1.00
2023-04-28T01:46:19.016Z,1.00
2023-04-28T01:47:21.069Z,1.00
2023-04-28T01:48:22.740Z,1.00
2023-04-28T01:49:24.527Z,1.00
2023-04-28T01:50:26.185Z,1.00
2023-04-28T01:51:27.986Z,1.00
2023-04-28T01:53:44.517Z,1.00
2023-04-28T01:54:46.250Z,1.00
2023-04-28T01:55:47.860Z,1.00
2023-04-28T01:56:49.450Z,1.00
2023-04-28T01:57:51.439Z,1.00
2023-04-28T01:58:53.337Z,1.00
2023-04-28T01:59:55.640Z,1.00
2023-04-28T02:00:57.294Z,1.00
2023-04-28T02:01:59.077Z,1.00
2023-04-28T02:03:01.276Z,1.00
2023-04-28T02:04:03.293Z,1.00
2023-04-28T02:05:05.496Z,1.00
2023-04-28T02:06:07.224Z,1.00
2023-04-28T02:07:08.846Z,1.00
2023-04-28T02:08:10.694Z,1.00
2023-04-28T02:09:12.324Z,1.00
2023-04-28T02:10:14.025Z,1.00
2023-04-28T02:11:15.984Z,1.00
2023-04-28T02:12:17.630Z,1.00
2023-04-28T02:13:19.338Z,1.00
2023-04-28T02:14:20.982Z,1.00
2023-04-28T02:15:22.763Z,1.00
2023-04-28T02:16:24.805Z,1.00
2023-04-28T02:17:44.536Z,1.00
2023-04-28T02:18:46.370Z,1.00
2023-04-28T02:19:48.196Z,1.00
2023-04-28T02:20:49.899Z,1.00
2023-04-28T02:21:51.782Z,1.00
2023-04-28T02:22:53.659Z,1.00
2023-04-28T02:23:55.362Z,1.00
2023-04-28T02:24:57.565Z,1.00
2023-04-28T02:26:03.910Z,1.00
2023-04-28T02:27:06.441Z,1.00
2023-04-28T02:28:08.165Z,1.00
2023-04-28T02:29:10.072Z,1.00
2023-04-28T02:30:12.025Z,1.00
2023-04-28T02:31:14.156Z,1.00
2023-04-28T02:32:16.216Z,1.00
2023-04-28T02:33:17.909Z,1.00
2023-04-28T02:34:19.645Z,1.00
2023-04-28T02:35:21.316Z,1.00
2023-04-28T02:36:23.277Z,1.00
2023-04-28T02:37:25.028Z,1.00
2023-04-28T02:38:27.407Z,1.00
2023-04-28T02:39:30.523Z,1.00
2023-04-28T02:40:32.191Z,1.00
2023-04-28T02:41:34.890Z,1.00
2023-04-28T02:42:36.658Z,1.00
2023-04-28T02:43:38.401Z,1.00
2023-04-28T02:44:40.510Z,1.00
2023-04-28T02:45:42.183Z,1.00
2023-04-28T02:46:44.013Z,1.00
2023-04-28T02:47:45.764Z,1.00
2023-04-28T02:48:47.450Z,1.00
2023-04-28T02:49:49.147Z,1.00
2023-04-28T02:50:51.183Z,1.00
2023-04-28T02:51:53.040Z,1.00
2023-04-28T02:52:54.719Z,1.00
2023-04-28T02:53:56.629Z,1.00
2023-04-28T02:54:58.375Z,1.00
2023-04-28T02:56:02.085Z,1.00
2023-04-28T02:57:04.852Z,1.00
2023-04-28T02:58:06.543Z,1.00
2023-04-28T02:59:08.385Z,1.00
2023-04-28T03:00:10.813Z,1.00
2023-04-28T03:01:12.544Z,1.00
2023-04-28T03:02:14.822Z,1.00
2023-04-28T03:03:16.868Z,1.00
2023-04-28T03:04:19.711Z,1.00
2023-04-28T03:05:21.803Z,1.00
2023-04-28T03:06:23.652Z,1.00
2023-04-28T03:07:25.522Z,1.00
2023-04-28T03:08:27.569Z,1.00
2023-04-28T03:09:29.638Z,1.00
2023-04-28T03:10:31.831Z,1.00
2023-04-28T03:11:33.638Z,1.00
2023-04-28T03:12:35.737Z,1.00
2023-04-28T03:13:37.620Z,1.00
2023-04-28T03:14:41.583Z,1.00
2023-04-28T03:15:43.328Z,1.00
2023-04-28T03:16:45.515Z,1.00
2023-04-28T03:17:48.792Z,1.00
2023-04-28T03:18:51.417Z,1.00
2023-04-28T03:19:53.444Z,1.00
2023-04-28T03:20:55.396Z,1.00
2023-04-28T03:21:57.206Z,1.00
2023-04-28T03:22:58.934Z,1.00
2023-04-28T03:24:01.329Z,1.00
2023-04-28T03:25:05.700Z,1.00
2023-04-28T03:26:08.082Z,1.00
2023-04-28T03:27:10.209Z,1.00
2023-04-28T03:28:12.083Z,1.00
2023-04-28T03:29:14.097Z,1.00
2023-04-28T03:30:15.987Z,1.00
2023-04-28T03:31:17.770Z,1.00
2023-04-28T03:32:19.905Z,1.00
2023-04-28T03:33:22.028Z,1.00
2023-04-28T03:38:56.417Z,1.00
2023-04-28T03:39:58.160Z,1.00
2023-04-28T03:41:00.469Z,1.00
2023-04-28T03:42:02.792Z,1.00
2023-04-28T03:43:05.040Z,1.00
2023-04-28T03:44:06.995Z,1.00
2023-04-28T03:45:09.572Z,1.00
2023-04-28T03:46:11.835Z,1.00
2023-04-28T03:47:15.476Z,1.00
2023-04-28T03:48:17.365Z,1.00
2023-04-28T03:49:19.653Z,1.00
2023-04-28T03:50:21.565Z,1.00
2023-04-28T03:51:23.444Z,1.00
2023-04-28T03:52:26.122Z,1.00
2023-04-28T03:53:28.009Z,1.00
2023-04-28T03:54:30.033Z,1.00
2023-04-28T03:55:32.090Z,1.00
2023-04-28T03:56:34.355Z,1.00
2023-04-28T03:57:36.512Z,1.00
2023-04-28T03:58:38.285Z,1.00
2023-04-28T03:59:40.162Z,1.00
2023-04-28T04:00:41.935Z,1.00
2023-04-28T04:01:43.891Z,1.00
2023-04-28T04:02:46.071Z,1.00
2023-04-28T04:03:48.173Z,1.00
2023-04-28T04:04:50.231Z,1.00
2023-04-28T04:08:08.357Z,1.00
2023-04-28T04:09:10.400Z,1.00
2023-04-28T04:10:12.120Z,1.00
2023-04-28T04:11:21.482Z,1.00
2023-04-28T04:16:55.635Z,1.00
2023-04-28T04:17:57.576Z,1.00
2023-04-28T04:18:59.262Z,1.00
2023-04-28T04:20:00.970Z,1.00
2023-04-28T04:21:03.366Z,1.00
2023-04-28T04:22:05.433Z,1.00
2023-04-28T04:23:07.368Z,1.00
2023-04-28T04:24:09.455Z,1.00
2023-04-28T04:25:11.121Z,1.00
2023-04-28T04:26:13.343Z,1.00
2023-04-28T04:27:15.160Z,1.00
2023-04-28T04:28:17.210Z,1.00
2023-04-28T04:29:18.862Z,1.00
2023-04-28T04:30:20.835Z,1.00
2023-04-28T04:33:38.538Z,1.00
2023-04-28T04:34:40.408Z,1.00
2023-04-28T04:35:42.080Z,1.00
2023-04-28T04:36:44.213Z,1.00
2023-04-28T04:37:45.985Z,1.00
2023-04-28T04:38:47.664Z,1.00
2023-04-28T04:39:49.289Z,1.00
2023-04-28T04:40:51.103Z,1.00
2023-04-28T04:41:53.045Z,1.00
2023-04-28T04:42:54.953Z,1.00
2023-04-28T04:43:56.818Z,1.00
2023-04-28T04:44:58.649Z,1.00
2023-04-28T04:46:00.799Z,1.00
2023-04-28T04:47:02.564Z,1.00
2023-04-28T04:48:04.732Z,1.00
2023-04-28T04:49:06.408Z,1.00
2023-04-28T04:50:09.479Z,1.00
2023-04-28T04:51:11.530Z,1.00
2023-04-28T04:52:13.100Z,1.00
2023-04-28T04:53:16.395Z,1.00
2023-04-28T04:54:18.539Z,1.00
2023-04-28T04:55:20.299Z,1.00
2023-04-28T04:56:22.741Z,1.00
2023-04-28T04:57:24.347Z,1.00
2023-04-28T04:58:26.355Z,1.00
2023-04-28T04:59:28.478Z,1.00
2023-04-28T05:00:30.308Z,1.00
2023-04-28T05:01:31.979Z,1.00
2023-04-28T05:02:33.814Z,1.00
2023-04-28T05:03:35.701Z,1.00
2023-04-28T05:04:37.731Z,1.00
2023-04-28T05:05:40.080Z,1.00
2023-04-28T05:06:42.063Z,1.00
2023-04-28T05:07:43.786Z,1.00
2023-04-28T05:08:45.364Z,1.00
2023-04-28T05:09:47.178Z,1.00
2023-04-28T05:10:49.047Z,1.00
2023-04-28T05:11:51.180Z,1.00
2023-04-28T05:12:52.848Z,1.00
2023-04-28T05:13:54.531Z,1.00
2023-04-28T05:14:56.431Z,1.00
2023-04-28T05:15:58.196Z,1.00
2023-04-28T05:17:00.013Z,1.00
2023-04-28T05:18:08.902Z,1.00
2023-04-28T05:19:10.668Z,1.00
2023-04-28T05:20:12.970Z,1.00
2023-04-28T05:21:16.200Z,1.00
2023-04-28T05:22:17.770Z,1.00
2023-04-28T05:23:19.353Z,1.00
2023-04-28T05:24:24.329Z,1.00
2023-04-28T05:25:26.198Z,1.00
2023-04-28T05:26:27.929Z,1.00
2023-04-28T05:27:29.521Z,1.00
2023-04-28T05:28:31.623Z,1.00
2023-04-28T05:29:33.207Z,1.00
2023-04-28T05:30:35.062Z,1.00
2023-04-28T05:31:36.700Z,1.00
2023-04-28T05:32:38.959Z,1.00
2023-04-28T05:33:40.677Z,1.00
2023-04-28T05:34:42.345Z,1.00
2023-04-28T05:35:44.054Z,1.00
2023-04-28T05:36:46.038Z,1.00
2023-04-28T05:37:47.728Z,1.00
2023-04-28T05:38:49.478Z,1.00
2023-04-28T05:39:51.118Z,1.00
2023-04-28T05:40:52.695Z,1.00
2023-04-28T05:41:54.353Z,1.00
2023-04-28T05:42:56.280Z,1.00
2023-04-28T05:43:58.011Z,1.00
2023-04-28T05:44:59.630Z,1.00
2023-04-28T05:46:01.597Z,1.00
2023-04-28T05:47:03.334Z,1.00
2023-04-28T05:48:05.396Z,1.00
2023-04-28T05:49:07.072Z,1.00
2023-04-28T05:50:09.237Z,1.00
2023-04-28T05:51:11.247Z,1.00
2023-04-28T05:52:12.848Z,1.00
2023-04-28T05:53:14.475Z,1.00
2023-04-28T05:54:16.277Z,1.00
2023-04-28T05:55:18.302Z,1.00
2023-04-28T05:56:20.915Z,1.00
2023-04-28T05:57:22.724Z,1.00
2023-04-28T05:58:24.323Z,1.00
2023-04-28T05:59:25.952Z,1.00
2023-04-28T06:00:27.632Z,1.00
2023-04-28T06:01:29.261Z,1.00
2023-04-28T06:02:31.807Z,1.00
2023-04-28T06:03:33.791Z,1.00
2023-04-28T06:04:35.977Z,1.00
2023-04-28T06:05:38.212Z,1.00
2023-04-28T06:06:40.474Z,1.00
2023-04-28T06:07:42.133Z,1.00
2023-04-28T06:08:43.755Z,1.00
2023-04-28T06:09:45.449Z,1.30
2023-04-28T06:10:47.082Z,1.80
2023-04-28T06:11:48.834Z,2.20
2023-04-28T06:12:51.036Z,2.30
2023-04-28T06:13:52.693Z,2.30
2023-04-28T06:14:55.482Z,2.40
2023-04-28T06:15:57.728Z,2.60
2023-04-28T06:17:00.556Z,2.90
2023-04-28T06:18:02.350Z,3.20
2023-04-28T06:19:04.505Z,3.40
2023-04-28T06:20:07.548Z,3.90
2023-04-28T06:21:09.301Z,4.40
2023-04-28T06:22:12.819Z,4.40
2023-04-28T06:23:14.549Z,4.60
2023-04-28T06:24:16.396Z,5.00
2023-04-28T06:25:18.220Z,5.40
2023-04-28T06:26:20.112Z,5.50
2023-04-28T06:27:21.776Z,5.80
2023-04-28T06:28:23.415Z,6.10
2023-04-28T06:29:25.344Z,6.10
2023-04-28T06:30:27.029Z,6.50
2023-04-28T06:31:28.764Z,7.10
2023-04-28T06:32:30.573Z,7.50
2023-04-28T06:33:33.811Z,7.70
2023-04-28T06:34:36.046Z,8.10
2023-04-28T06:35:39.061Z,8.60
2023-04-28T06:36:40.784Z,8.50
2023-04-28T06:37:43.617Z,8.90
2023-04-28T06:38:46.082Z,8.80
2023-04-28T06:39:47.932Z,9.70
2023-04-28T06:40:49.643Z,9.70
2023-04-28T06:41:51.410Z,9.80
2023-04-28T06:42:53.160Z,9.80
2023-04-28T06:43:55.456Z,10.10
2023-04-28T06:44:57.177Z,10.40
2023-04-28T06:45:58.954Z,10.50
2023-04-28T06:47:00.815Z,11.00
2023-04-28T06:48:02.637Z,11.30
2023-04-28T06:49:04.430Z,11.20
2023-04-28T06:50:06.766Z,11.00
2023-04-28T06:51:08.664Z,11.00
2023-04-28T06:52:10.423Z,11.00
2023-04-28T06:53:12.278Z,11.60
2023-04-28T06:54:13.847Z,12.50
2023-04-28T06:55:17.312Z,11.50
2023-04-28T06:56:19.867Z,11.40
2023-04-28T06:57:21.983Z,11.30
2023-04-28T06:58:24.048Z,11.00
2023-04-28T06:59:25.787Z,11.00
2023-04-28T07:00:27.542Z,10.90
2023-04-28T07:01:29.268Z,10.80
2023-04-28T07:02:31.138Z,10.90
2023-04-28T07:03:32.944Z,10.90
2023-04-28T07:04:34.823Z,10.70
2023-04-28T07:05:36.551Z,10.60
2023-04-28T07:06:38.176Z,10.20
2023-04-28T07:07:39.902Z,10.20
2023-04-28T07:08:42.215Z,10.30
2023-04-28T07:09:43.924Z,10.40
2023-04-28T07:10:47.279Z,10.30
2023-04-28T07:11:48.979Z,9.90
2023-04-28T07:12:52.350Z,10.20
2023-04-28T07:13:54.046Z,9.90
2023-04-28T07:14:56.299Z,9.80
2023-04-28T07:16:07.735Z,9.80
2023-04-28T07:17:10.855Z,9.90
2023-04-28T07:18:12.885Z,9.50
2023-04-28T07:19:16.826Z,9.50
2023-04-28T07:20:18.684Z,9.90
2023-04-28T07:21:21.696Z,9.80
2023-04-28T07:22:23.518Z,9.80
2023-04-28T07:23:25.147Z,10.00
2023-04-28T07:24:27.433Z,9.90
2023-04-28T07:25:29.407Z,9.90
2023-04-28T07:26:33.355Z,9.80
2023-04-28T07:27:37.461Z,9.60
2023-04-28T07:28:39.482Z,9.60
2023-04-28T07:29:41.278Z,9.60
2023-04-28T07:30:42.945Z,9.30
2023-04-28T07:31:44.817Z,9.40
2023-04-28T07:32:46.499Z,9.50
2023-04-28T07:33:48.222Z,9.80
2023-04-28T07:34:49.937Z,9.70
2023-04-28T07:35:53.388Z,9.70
2023-04-28T07:36:56.389Z,9.70
2023-04-28T07:37:58.251Z,9.40
2023-04-28T07:39:01.879Z,9.60
2023-04-28T07:40:04.487Z,9.40
2023-04-28T07:41:08.716Z,9.30
2023-04-28T07:42:12.909Z,10.00
2023-04-28T07:43:15.056Z,9.60
2023-04-28T07:44:17.177Z,9.60
2023-04-28T07:45:19.081Z,9.40
2023-04-28T07:46:20.864Z,9.40
2023-04-28T07:47:22.491Z,9.50
2023-04-28T07:48:24.235Z,9.30
2023-04-28T07:49:30.869Z,9.60
2023-04-28T07:50:33.030Z,9.90
2023-04-28T07:51:34.679Z,10.30
2023-04-28T07:52:36.346Z,10.70
2023-04-28T07:53:38.317Z,10.40
2023-04-28T07:54:39.939Z,10.70
2023-04-28T07:55:46.197Z,10.60
2023-04-28T07:56:48.122Z,10.70
2023-04-28T07:57:49.809Z,10.90
2023-04-28T07:58:51.906Z,11.00
2023-04-28T07:59:53.554Z,11.00
2023-04-28T08:00:55.451Z,11.00
2023-04-28T08:01:57.174Z,11.20
2023-04-28T08:02:59.019Z,11.30
2023-04-28T08:04:01.581Z,11.70
2023-04-28T08:05:04.554Z,11.80
2023-04-28T08:06:07.360Z,11.60
2023-04-28T08:07:09.894Z,11.60
2023-04-28T08:08:11.927Z,11.40
2023-04-28T08:09:14.106Z,11.50
2023-04-28T08:10:16.098Z,11.80
2023-04-28T08:11:17.741Z,12.30
2023-04-28T08:12:19.400Z,12.50
2023-04-28T08:13:21.237Z,12.50
2023-04-28T08:14:23.095Z,12.50
2023-04-28T08:15:28.935Z,13.10
2023-04-28T08:16:32.881Z,13.10
2023-04-28T08:17:34.560Z,13.40
2023-04-28T08:18:36.252Z,13.80
2023-04-28T08:19:37.890Z,13.70
2023-04-28T08:20:39.486Z,13.70
2023-04-28T08:21:41.057Z,13.80
2023-04-28T08:22:42.649Z,13.90
2023-04-28T08:23:44.249Z,13.90
2023-04-28T08:24:46.176Z,13.80
2023-04-28T08:25:49.444Z,13.70
2023-04-28T08:26:51.782Z,14.00
2023-04-28T08:27:57.193Z,14.40
2023-04-28T08:28:59.096Z,14.50
2023-04-28T08:30:00.693Z,14.50
2023-04-28T08:31:05.233Z,14.70
2023-04-28T08:32:06.989Z,15.00
2023-04-28T08:33:08.832Z,15.20
2023-04-28T08:34:10.553Z,15.30
2023-04-28T08:35:12.747Z,15.40
2023-04-28T08:36:15.122Z,15.90
2023-04-28T08:37:16.965Z,16.20
2023-04-28T08:38:18.994Z,16.60
2023-04-28T08:39:23.048Z,17.10
2023-04-28T08:40:25.288Z,17.40
2023-04-28T08:41:30.001Z,17.30
2023-04-28T08:42:32.247Z,17.60
2023-04-28T08:43:35.602Z,17.90
2023-04-28T08:44:39.423Z,18.00
2023-04-28T08:45:43.112Z,18.10
2023-04-28T08:46:46.872Z,18.20
2023-04-28T08:47:51.091Z,17.90
2023-04-28T08:49:03.492Z,18.00
2023-04-28T08:50:07.375Z,18.40
2023-04-28T08:51:10.096Z,18.40
2023-04-28T08:52:16.804Z,18.70
2023-04-28T08:53:23.800Z,18.80
2023-04-28T08:54:30.459Z,19.40
2023-04-28T08:55:32.965Z,19.40
2023-04-28T08:56:35.424Z,19.60
2023-04-28T08:57:44.020Z,20.00
2023-04-28T08:58:45.915Z,21.20
2023-04-28T08:59:47.956Z,21.60
2023-04-28T09:00:49.967Z,21.80
2023-04-28T09:01:52.105Z,22.10
2023-04-28T09:02:54.079Z,22.30
2023-04-28T09:03:57.294Z,22.50
2023-04-28T09:04:59.699Z,23.00
2023-04-28T09:06:02.649Z,22.80
2023-04-28T09:07:04.754Z,22.90
2023-04-28T09:08:06.812Z,23.00
2023-04-28T09:09:25.516Z,23.20
2023-04-28T09:10:27.636Z,23.70
2023-04-28T09:11:29.380Z,23.80
2023-04-28T09:12:40.170Z,23.80
2023-04-28T09:13:42.212Z,24.20
2023-04-28T09:14:44.063Z,24.10
2023-04-28T09:15:50.952Z,24.10
2023-04-28T09:16:53.172Z,24.60
2023-04-28T09:17:55.039Z,24.60
2023-04-28T09:18:59.603Z,24.60
2023-04-28T09:20:01.749Z,25.00
2023-04-28T09:21:10.313Z,24.90
2023-04-28T09:22:25.753Z,24.80
2023-04-28T09:23:28.704Z,24.50
2023-04-28T09:24:37.002Z,24.70
2023-04-28T09:25:38.731Z,24.80
2023-04-28T09:26:51.202Z,24.50
2023-04-28T09:27:53.944Z,24.80
2023-04-28T09:29:12.915Z,24.40
2023-04-28T09:30:15.389Z,25.10
2023-04-28T09:31:25.385Z,24.80
2023-04-28T09:32:28.804Z,25.10
2023-04-28T09:33:30.732Z,25.00
2023-04-28T09:34:45.841Z,24.80
2023-04-28T09:35:48.691Z,24.80
2023-04-28T09:36:50.728Z,24.50
2023-04-28T09:37:58.928Z,24.40
2023-04-28T09:39:01.759Z,24.70
2023-04-28T09:40:12.704Z,24.60
2023-04-28T09:41:14.380Z,24.50
2023-04-28T09:42:46.975Z,24.10
2023-04-28T09:43:48.762Z,25.50
2023-04-28T09:44:54.034Z,24.80
2023-04-28T09:45:59.287Z,24.70
2023-04-28T09:47:01.407Z,24.20
2023-04-28T09:48:11.062Z,24.20
2023-04-28T09:49:13.831Z,24.50
2023-04-28T09:50:17.490Z,24.20
2023-04-28T09:51:21.157Z,24.30
2023-04-28T09:52:24.688Z,24.70
2023-04-28T09:53:28.352Z,24.60
2023-04-28T09:54:31.046Z,24.30
2023-04-28T09:55:37.023Z,24.30
2023-04-28T09:56:42.519Z,24.20
2023-04-28T09:57:45.493Z,23.90
2023-04-28T09:58:50.810Z,24.00
2023-04-28T09:59:53.748Z,23.80
2023-04-28T10:00:58.394Z,24.10
2023-04-28T10:02:04.668Z,24.40
2023-04-28T10:03:15.558Z,24.20
2023-04-28T10:04:17.982Z,24.10
2023-04-28T10:05:22.847Z,24.20
2023-04-28T10:06:25.736Z,23.30
2023-04-28T10:07:28.727Z,23.20
2023-04-28T10:08:30.515Z,23.00
2023-04-28T10:09:33.270Z,23.90
2023-04-28T10:10:35.192Z,23.30
2023-04-28T10:11:37.342Z,22.80
2023-04-28T10:12:39.559Z,22.30
2023-04-28T10:13:43.312Z,21.80
2023-04-28T10:14:46.337Z,22.30
2023-04-28T10:15:51.679Z,22.70
2023-04-28T10:16:54.945Z,22.30
2023-04-28T10:17:57.490Z,21.90
2023-04-28T10:19:00.342Z,21.50
2023-04-28T10:20:03.812Z,21.20
2023-04-28T10:21:07.489Z,21.20
2023-04-28T10:22:33.602Z,21.20
2023-04-28T10:24:06.750Z,21.40
2023-04-28T10:25:14.558Z,22.00
2023-04-28T10:26:19.857Z,21.70
2023-04-28T10:27:28.078Z,21.70
2023-04-28T10:28:30.104Z,21.40
2023-04-28T10:29:36.118Z,21.20
2023-04-28T10:30:38.275Z,21.30
2023-04-28T10:32:19.644Z,21.30
2023-04-28T10:33:26.276Z,21.30
2023-04-28T10:34:30.196Z,20.00
2023-04-28T10:35:33.612Z,20.20
2023-04-28T10:36:56.101Z,20.40
2023-04-28T10:38:22.225Z,20.40
2023-04-28T10:39:24.164Z,20.00
2023-04-28T10:40:36.310Z,19.20
2023-04-28T10:41:38.494Z,19.40
2023-04-28T10:42:59.122Z,19.30
2023-04-28T10:44:00.959Z,19.40
2023-04-28T10:45:02.664Z,18.70
2023-04-28T10:46:06.499Z,18.70
2023-04-28T10:47:10.000Z,18.80
2023-04-28T10:48:11.776Z,19.30
2023-04-28T10:49:13.502Z,19.30
2023-04-28T10:50:15.466Z,19.70
2023-04-28T10:51:17.157Z,19.50
2023-04-28T10:52:48.697Z,19.20
2023-04-28T10:53:51.845Z,19.60
2023-04-28T10:55:36.687Z,18.70
2023-04-28T10:56:39.844Z,19.60
2023-04-28T10:57:43.260Z,18.70
2023-04-28T10:58:50.623Z,18.40
2023-04-28T10:59:52.724Z,18.90
2023-04-28T11:00:54.526Z,19.00
2023-04-28T11:02:16.233Z,19.10
2023-04-28T11:03:46.835Z,19.50
2023-04-28T11:05:12.204Z,20.10
2023-04-28T11:06:32.501Z,19.80
2023-04-28T11:07:34.374Z,19.60
2023-04-28T11:08:36.252Z,19.30
2023-04-28T11:09:37.989Z,19.30
2023-04-28T11:11:15.197Z,18.80
2023-04-28T11:12:17.313Z,19.40
2023-04-28T11:13:31.849Z,18.60
2023-04-28T11:14:35.594Z,18.40
2023-04-28T11:15:45.886Z,18.10
2023-04-28T11:17:08.333Z,17.90
2023-04-28T11:18:17.706Z,17.50
2023-04-28T11:19:27.167Z,15.10
2023-04-28T11:20:29.832Z,14.80
2023-04-28T11:21:32.737Z,14.70
2023-04-28T11:22:34.640Z,14.70
2023-04-28T11:23:36.738Z,14.70
2023-04-28T11:24:38.501Z,13.30
2023-04-28T11:25:59.403Z,13.50
2023-04-28T11:27:02.330Z,14.30
2023-04-28T11:28:05.582Z,14.10
2023-04-28T11:29:07.728Z,13.80
2023-04-28T11:30:22.759Z,14.10
2023-04-28T11:31:26.282Z,14.70
2023-04-28T11:32:31.644Z,13.40
2023-04-28T11:33:33.472Z,13.50
2023-04-28T11:34:36.567Z,13.00
2023-04-28T11:35:42.289Z,13.20
2023-04-28T11:36:44.406Z,13.10
2023-04-28T11:37:46.542Z,12.90
2023-04-28T11:38:49.137Z,12.60
2023-04-28T11:39:51.102Z,12.40
2023-04-28T11:40:59.245Z,10.40
2023-04-28T11:42:09.126Z,10.20
2023-04-28T11:43:11.010Z,10.40
2023-04-28T11:44:17.451Z,10.30
2023-04-28T11:45:19.276Z,9.20
2023-04-28T11:46:23.287Z,9.60
2023-04-28T11:47:33.101Z,9.10
2023-04-28T11:48:34.861Z,9.20
2023-04-28T11:49:43.499Z,9.30
2023-04-28T11:50:45.481Z,9.10
2023-04-28T11:51:49.844Z,8.90
2023-04-28T11:52:53.704Z,9.30
2023-04-28T11:53:55.807Z,9.90
2023-04-28T11:55:00.176Z,9.90
2023-04-28T11:56:08.341Z,7.50
2023-04-28T11:57:21.410Z,7.50
2023-04-28T11:58:27.908Z,7.60
2023-04-28T11:59:34.505Z,7.70
2023-04-28T12:00:36.436Z,7.80
2023-04-28T12:01:49.617Z,7.30
2023-04-28T12:02:51.833Z,7.30
2023-04-28T12:03:54.980Z,6.60
2023-04-28T12:04:57.246Z,6.80
2023-04-28T12:05:59.329Z,6.80
2023-04-28T12:07:11.861Z,6.80
2023-04-28T12:08:14.460Z,6.80
2023-04-28T12:09:25.117Z,5.30
2023-04-28T12:10:26.953Z,6.40
2023-04-28T12:11:28.649Z,4.40
2023-04-28T12:12:45.488Z,4.60
2023-04-28T12:14:06.238Z,5.10
2023-04-28T12:15:08.608Z,5.50
2023-04-28T12:16:10.995Z,5.30
2023-04-28T12:17:25.291Z,4.10
2023-04-28T12:18:27.586Z,3.80
2023-04-28T12:19:29.238Z,4.00
2023-04-28T12:20:38.482Z,3.70
2023-04-28T12:21:41.074Z,3.40
2023-04-28T12:22:48.342Z,3.50
2023-04-28T12:23:50.483Z,3.10
2023-04-28T12:25:04.803Z,3.40
2023-04-28T12:26:06.575Z,3.00
2023-04-28T12:27:21.533Z,3.90
2023-04-28T12:28:23.325Z,3.40
2023-04-28T12:29:39.784Z,2.70
2023-04-28T12:30:44.405Z,3.30
2023-04-28T12:31:53.135Z,3.00
2023-04-28T12:32:56.128Z,1.60
2023-04-28T12:33:58.069Z,1.50
2023-04-28T12:34:59.688Z,1.90
2023-04-28T12:36:01.457Z,1.90
2023-04-28T12:37:05.889Z,2.00
2023-04-28T12:38:11.514Z,2.20
2023-04-28T12:39:16.878Z,2.20
2023-04-28T12:40:19.069Z,2.70
2023-04-28T12:41:20.724Z,3.50
2023-04-28T12:42:23.582Z,4.50
2023-04-28T12:43:27.118Z,5.10
2023-04-28T12:44:36.638Z,6.10
2023-04-28T12:45:39.002Z,7.20
2023-04-28T12:46:40.861Z,7.40
2023-04-28T12:47:42.951Z,7.60
2023-04-28T12:48:44.854Z,8.30
2023-04-28T12:49:48.316Z,9.10
2023-04-28T12:50:50.191Z,9.00
2023-04-28T12:51:51.875Z,9.10
2023-04-28T12:52:53.566Z,9.50
2023-04-28T12:53:55.376Z,9.60
2023-04-28T12:54:57.016Z,9.20
2023-04-28T12:55:59.383Z,8.10
2023-04-28T12:57:01.977Z,8.10
2023-04-28T12:58:03.631Z,8.20
2023-04-28T12:59:06.064Z,8.30
2023-04-28T13:00:08.839Z,8.30
2023-04-28T13:01:10.994Z,7.90
2023-04-28T13:02:14.644Z,7.50
2023-04-28T13:03:16.412Z,7.10
2023-04-28T13:04:19.310Z,7.00
2023-04-28T13:05:21.442Z,6.80
2023-04-28T13:06:23.134Z,6.80
2023-04-28T13:07:24.886Z,7.00
2023-04-28T13:08:26.750Z,7.40
2023-04-28T13:09:29.565Z,7.20
2023-04-28T13:10:31.287Z,6.60
2023-04-28T13:11:33.053Z,7.40
2023-04-28T13:12:34.935Z,6.80
2023-04-28T13:13:38.546Z,6.80
2023-04-28T13:14:40.336Z,6.80
2023-04-28T13:15:42.217Z,6.80
2023-04-28T13:16:50.230Z,6.80
2023-04-28T13:18:11.001Z,6.80
2023-04-28T13:19:14.755Z,6.30
2023-04-28T13:20:16.449Z,6.20
2023-04-28T13:21:18.321Z,6.10
2023-04-28T13:22:21.677Z,5.80
2023-04-28T13:23:23.437Z,5.50
2023-04-28T13:24:25.080Z,5.50
2023-04-28T13:25:27.207Z,5.00
2023-04-28T13:26:28.838Z,4.10
2023-04-28T13:27:30.662Z,3.50
2023-04-28T13:28:32.492Z,3.90
2023-04-28T13:29:34.122Z,3.70
2023-04-28T13:30:35.747Z,3.10
2023-04-28T13:31:38.044Z,3.00
2023-04-28T13:32:39.932Z,3.40
2023-04-28T13:33:41.711Z,2.70
2023-04-28T13:34:43.955Z,1.90
2023-04-28T13:35:45.796Z,2.00
2023-04-28T13:36:50.745Z,2.40
2023-04-28T13:38:01.538Z,2.60
2023-04-28T13:39:03.361Z,2.20
2023-04-28T13:40:06.307Z,2.10
2023-04-28T13:41:07.994Z,2.30
2023-04-28T13:42:09.682Z,2.50
2023-04-28T13:43:11.324Z,2.10
2023-04-28T13:44:13.118Z,1.50
2023-04-28T13:45:17.416Z,1.40
2023-04-28T13:46:20.189Z,1.20
2023-04-28T13:47:21.898Z,1.00
2023-04-28T13:48:24.278Z,1.00
2023-04-28T13:49:26.246Z,1.00
2023-04-28T13:50:27.923Z,1.90
2023-04-28T13:51:29.605Z,1.90
2023-04-28T13:52:31.515Z,2.90
2023-04-28T13:53:34.170Z,3.60
2023-04-28T13:54:36.218Z,3.00
2023-04-28T13:55:38.160Z,3.00
2023-04-28T13:56:40.079Z,2.90
2023-04-28T13:57:42.175Z,3.30
2023-04-28T13:58:43.904Z,3.70
2023-04-28T13:59:45.860Z,3.90
2023-04-28T14:00:47.678Z,4.40
2023-04-28T14:01:52.224Z,4.90
2023-04-28T14:02:54.096Z,5.30
2023-04-28T14:03:56.088Z,6.30
2023-04-28T14:04:58.073Z,6.80
2023-04-28T14:05:59.896Z,6.80
2023-04-28T14:07:02.035Z,6.80
2023-04-28T14:08:03.881Z,6.80
2023-04-28T14:09:06.687Z,6.80
2023-04-28T14:10:09.033Z,6.80
2023-04-28T14:11:11.912Z,6.80
2023-04-28T14:12:15.272Z,7.00